sensor_id;sensor_type;location;lat;lon;timestamp;temperature;humidity
10419;DHT22;5256;48.728;9.140;2024-03-02T00:01:24;3.80;99.90
10419;DHT22;5256;48.728;9.140;2024-03-02T00:03:49;3.80;99.90
10419;DHT22;5256;48.728;9.140;2024-03-02T00:06:18;3.80;99.90
10419;DHT22;5256;48.728;9.140;2024-03-02T00:08:45;3.70;99.90
10419;DHT22;5256;48.728;9.140;2024-03-02T00:11:10;3.70;99.90
10419;DHT22;5256;48.728;9.140;2024-03-02T00:13:39;3.80;99.90
10419;DHT22;5256;48.728;9.140;2024-03-02T00:16:05;3.80;99.90
10419;DHT22;5256;48.728;9.140;2024-03-02T00:18:32;3.80;99.90
10419;DHT22;5256;48.728;9.140;2024-03-02T00:20:59;3.80;99.90
10419;DHT22;5256;48.728;9.140;2024-03-02T00:23:29;3.80;99.90
10419;DHT22;5256;48.728;9.140;2024-03-02T00:25:55;3.80;99.90
10419;DHT22;5256;48.728;9.140;2024-03-02T00:28:42;3.80;99.90
10419;DHT22;5256;48.728;9.140;2024-03-02T00:31:12;3.80;99.90
10419;DHT22;5256;48.728;9.140;2024-03-02T00:33:42;3.80;99.90
10419;DHT22;5256;48.728;9.140;2024-03-02T00:36:10;3.80;99.90
10419;DHT22;5256;48.728;9.140;2024-03-02T00:38:49;3.80;99.90
10419;DHT22;5256;48.728;9.140;2024-03-02T00:44:00;3.80;99.90
10419;DHT22;5256;48.728;9.140;2024-03-02T00:46:29;3.80;99.90
10419;DHT22;5256;48.728;9.140;2024-03-02T00:49:00;3.80;99.90
10419;DHT22;5256;48.728;9.140;2024-03-02T00:51:29;3.80;99.90
10419;DHT22;5256;48.728;9.140;2024-03-02T00:53:59;3.80;99.90
10419;DHT22;5256;48.728;9.140;2024-03-02T00:56:25;3.80;99.90
10419;DHT22;5256;48.728;9.140;2024-03-02T00:58:52;3.70;99.90
10419;DHT22;5256;48.728;9.140;2024-03-02T01:01:18;3.70;99.90
10419;DHT22;5256;48.728;9.140;2024-03-02T01:03:45;3.70;99.90
10419;DHT22;5256;48.728;9.140;2024-03-02T01:06:10;3.60;99.90
10419;DHT22;5256;48.728;9.140;2024-03-02T01:08:37;3.60;99.90
10419;DHT22;5256;48.728;9.140;2024-03-02T01:11:03;3.70;99.90
10419;DHT22;5256;48.728;9.140;2024-03-02T01:13:29;3.70;99.90
10419;DHT22;5256;48.728;9.140;2024-03-02T01:15:55;3.60;99.90
10419;DHT22;5256;48.728;9.140;2024-03-02T01:18:21;3.60;99.90
10419;DHT22;5256;48.728;9.140;2024-03-02T01:20:47;3.60;99.90
10419;DHT22;5256;48.728;9.140;2024-03-02T01:23:13;3.60;99.90
10419;DHT22;5256;48.728;9.140;2024-03-02T01:25:39;3.60;99.90
10419;DHT22;5256;48.728;9.140;2024-03-02T01:28:05;3.60;99.90
10419;DHT22;5256;48.728;9.140;2024-03-02T01:30:31;3.50;99.90
10419;DHT22;5256;48.728;9.140;2024-03-02T01:32:56;3.50;99.90
10419;DHT22;5256;48.728;9.140;2024-03-02T01:35:24;3.50;99.90
10419;DHT22;5256;48.728;9.140;2024-03-02T01:37:49;3.50;99.90
10419;DHT22;5256;48.728;9.140;2024-03-02T01:40:15;3.50;99.90
10419;DHT22;5256;48.728;9.140;2024-03-02T01:42:41;3.40;99.90
10419;DHT22;5256;48.728;9.140;2024-03-02T01:45:08;3.30;99.90
10419;DHT22;5256;48.728;9.140;2024-03-02T01:47:34;3.30;99.90
10419;DHT22;5256;48.728;9.140;2024-03-02T01:50:00;3.20;99.90
10419;DHT22;5256;48.728;9.140;2024-03-02T01:52:27;3.10;99.90
10419;DHT22;5256;48.728;9.140;2024-03-02T01:54:52;3.10;99.90
10419;DHT22;5256;48.728;9.140;2024-03-02T01:57:18;3.00;99.90
10419;DHT22;5256;48.728;9.140;2024-03-02T01:59:44;3.00;99.90
10419;DHT22;5256;48.728;9.140;2024-03-02T02:02:10;3.00;99.90
10419;DHT22;5256;48.728;9.140;2024-03-02T02:04:35;2.90;99.90
10419;DHT22;5256;48.728;9.140;2024-03-02T02:07:01;2.80;99.90
10419;DHT22;5256;48.728;9.140;2024-03-02T02:09:27;2.70;99.90
10419;DHT22;5256;48.728;9.140;2024-03-02T02:11:52;2.70;99.90
10419;DHT22;5256;48.728;9.140;2024-03-02T02:14:18;2.60;99.90
10419;DHT22;5256;48.728;9.140;2024-03-02T02:16:44;2.50;99.90
10419;DHT22;5256;48.728;9.140;2024-03-02T02:19:09;2.40;99.90
10419;DHT22;5256;48.728;9.140;2024-03-02T02:21:35;2.40;99.90
10419;DHT22;5256;48.728;9.140;2024-03-02T02:24:01;2.30;99.90
10419;DHT22;5256;48.728;9.140;2024-03-02T02:26:29;2.30;99.90
10419;DHT22;5256;48.728;9.140;2024-03-02T02:28:55;2.30;99.90
10419;DHT22;5256;48.728;9.140;2024-03-02T02:31:20;2.20;99.90
10419;DHT22;5256;48.728;9.140;2024-03-02T02:33:46;2.20;99.90
10419;DHT22;5256;48.728;9.140;2024-03-02T02:36:11;2.20;99.90
10419;DHT22;5256;48.728;9.140;2024-03-02T02:38:47;2.20;99.90
10419;DHT22;5256;48.728;9.140;2024-03-02T02:41:14;2.20;99.90
10419;DHT22;5256;48.728;9.140;2024-03-02T02:43:39;2.10;99.90
10419;DHT22;5256;48.728;9.140;2024-03-02T02:46:05;2.10;99.90
10419;DHT22;5256;48.728;9.140;2024-03-02T02:48:31;2.10;99.90
10419;DHT22;5256;48.728;9.140;2024-03-02T02:50:56;2.10;99.90
10419;DHT22;5256;48.728;9.140;2024-03-02T02:53:22;2.10;99.90
10419;DHT22;5256;48.728;9.140;2024-03-02T02:55:48;2.00;99.90
10419;DHT22;5256;48.728;9.140;2024-03-02T02:58:13;2.10;99.90
10419;DHT22;5256;48.728;9.140;2024-03-02T03:00:40;2.10;99.90
10419;DHT22;5256;48.728;9.140;2024-03-02T03:03:05;2.10;99.90
10419;DHT22;5256;48.728;9.140;2024-03-02T03:05:31;2.20;99.90
10419;DHT22;5256;48.728;9.140;2024-03-02T03:07:57;2.20;99.90
10419;DHT22;5256;48.728;9.140;2024-03-02T03:10:22;2.10;99.90
10419;DHT22;5256;48.728;9.140;2024-03-02T03:12:49;2.10;99.90
10419;DHT22;5256;48.728;9.140;2024-03-02T03:15:15;2.20;99.90
10419;DHT22;5256;48.728;9.140;2024-03-02T03:17:42;2.20;99.90
10419;DHT22;5256;48.728;9.140;2024-03-02T03:20:08;2.30;99.90
10419;DHT22;5256;48.728;9.140;2024-03-02T03:22:37;2.20;99.90
10419;DHT22;5256;48.728;9.140;2024-03-02T03:25:03;2.20;99.90
10419;DHT22;5256;48.728;9.140;2024-03-02T03:27:29;2.20;99.90
10419;DHT22;5256;48.728;9.140;2024-03-02T03:29:54;2.20;99.90
10419;DHT22;5256;48.728;9.140;2024-03-02T03:32:20;2.20;99.90
10419;DHT22;5256;48.728;9.140;2024-03-02T03:34:45;2.20;99.90
10419;DHT22;5256;48.728;9.140;2024-03-02T03:37:13;2.10;99.90
10419;DHT22;5256;48.728;9.140;2024-03-02T03:39:39;2.00;99.90
10419;DHT22;5256;48.728;9.140;2024-03-02T03:42:05;2.00;99.90
10419;DHT22;5256;48.728;9.140;2024-03-02T03:44:30;1.90;99.90
10419;DHT22;5256;48.728;9.140;2024-03-02T03:46:56;1.90;99.90
10419;DHT22;5256;48.728;9.140;2024-03-02T03:49:21;1.90;99.90
10419;DHT22;5256;48.728;9.140;2024-03-02T03:51:47;1.90;99.90
10419;DHT22;5256;48.728;9.140;2024-03-02T03:54:13;1.90;99.90
10419;DHT22;5256;48.728;9.140;2024-03-02T03:56:38;1.90;99.90
10419;DHT22;5256;48.728;9.140;2024-03-02T03:59:04;1.90;99.90
10419;DHT22;5256;48.728;9.140;2024-03-02T04:01:30;1.90;99.90
10419;DHT22;5256;48.728;9.140;2024-03-02T04:03:57;1.90;99.90
10419;DHT22;5256;48.728;9.140;2024-03-02T04:06:23;1.90;99.90
10419;DHT22;5256;48.728;9.140;2024-03-02T04:08:48;1.80;99.90
10419;DHT22;5256;48.728;9.140;2024-03-02T04:11:14;1.80;99.90
10419;DHT22;5256;48.728;9.140;2024-03-02T04:13:39;1.70;99.90
10419;DHT22;5256;48.728;9.140;2024-03-02T04:16:05;1.60;99.90
10419;DHT22;5256;48.728;9.140;2024-03-02T04:18:31;1.60;99.90
10419;DHT22;5256;48.728;9.140;2024-03-02T04:20:57;1.50;99.90
10419;DHT22;5256;48.728;9.140;2024-03-02T04:23:25;1.50;99.90
10419;DHT22;5256;48.728;9.140;2024-03-02T04:25:50;1.60;99.90
10419;DHT22;5256;48.728;9.140;2024-03-02T04:28:16;1.70;99.90
10419;DHT22;5256;48.728;9.140;2024-03-02T04:30:41;1.60;99.90
10419;DHT22;5256;48.728;9.140;2024-03-02T04:33:07;1.60;99.90
10419;DHT22;5256;48.728;9.140;2024-03-02T04:35:35;1.60;99.90
10419;DHT22;5256;48.728;9.140;2024-03-02T04:38:01;1.60;99.90
10419;DHT22;5256;48.728;9.140;2024-03-02T04:40:26;1.60;99.90
10419;DHT22;5256;48.728;9.140;2024-03-02T04:42:52;1.50;99.90
10419;DHT22;5256;48.728;9.140;2024-03-02T04:45:17;1.40;99.90
10419;DHT22;5256;48.728;9.140;2024-03-02T04:47:43;1.40;99.90
10419;DHT22;5256;48.728;9.140;2024-03-02T04:50:08;1.40;99.90
10419;DHT22;5256;48.728;9.140;2024-03-02T04:52:34;1.40;99.90
10419;DHT22;5256;48.728;9.140;2024-03-02T04:55:00;1.40;99.90
10419;DHT22;5256;48.728;9.140;2024-03-02T04:57:35;1.50;99.90
10419;DHT22;5256;48.728;9.140;2024-03-02T05:00:01;1.60;99.90
10419;DHT22;5256;48.728;9.140;2024-03-02T05:02:26;1.60;99.90
10419;DHT22;5256;48.728;9.140;2024-03-02T05:04:52;1.50;99.90
10419;DHT22;5256;48.728;9.140;2024-03-02T05:07:17;1.40;99.90
10419;DHT22;5256;48.728;9.140;2024-03-02T05:09:43;1.40;99.90
10419;DHT22;5256;48.728;9.140;2024-03-02T05:12:09;1.40;99.90
10419;DHT22;5256;48.728;9.140;2024-03-02T05:14:48;1.40;99.90
10419;DHT22;5256;48.728;9.140;2024-03-02T05:17:14;1.40;99.90
10419;DHT22;5256;48.728;9.140;2024-03-02T05:19:39;1.40;99.90
10419;DHT22;5256;48.728;9.140;2024-03-02T05:22:05;1.40;99.90
10419;DHT22;5256;48.728;9.140;2024-03-02T05:24:31;1.40;99.90
10419;DHT22;5256;48.728;9.140;2024-03-02T05:26:56;1.40;99.90
10419;DHT22;5256;48.728;9.140;2024-03-02T05:29:22;1.40;99.90
10419;DHT22;5256;48.728;9.140;2024-03-02T05:31:48;1.30;99.90
10419;DHT22;5256;48.728;9.140;2024-03-02T05:34:13;1.30;99.90
10419;DHT22;5256;48.728;9.140;2024-03-02T05:36:39;1.20;99.90
10419;DHT22;5256;48.728;9.140;2024-03-02T05:39:05;1.20;99.90
10419;DHT22;5256;48.728;9.140;2024-03-02T05:41:34;1.20;99.90
10419;DHT22;5256;48.728;9.140;2024-03-02T05:44:00;1.20;99.90
10419;DHT22;5256;48.728;9.140;2024-03-02T05:46:25;1.20;99.90
10419;DHT22;5256;48.728;9.140;2024-03-02T05:48:52;1.20;99.90
10419;DHT22;5256;48.728;9.140;2024-03-02T05:51:17;1.10;99.90
10419;DHT22;5256;48.728;9.140;2024-03-02T05:53:43;1.10;99.90
10419;DHT22;5256;48.728;9.140;2024-03-02T05:56:08;1.00;99.90
10419;DHT22;5256;48.728;9.140;2024-03-02T05:58:34;0.90;99.90
10419;DHT22;5256;48.728;9.140;2024-03-02T06:01:18;1.00;99.90
10419;DHT22;5256;48.728;9.140;2024-03-02T06:03:44;1.00;99.90
10419;DHT22;5256;48.728;9.140;2024-03-02T06:06:10;1.00;99.90
10419;DHT22;5256;48.728;9.140;2024-03-02T06:08:35;1.00;99.90
10419;DHT22;5256;48.728;9.140;2024-03-02T06:11:01;1.10;99.90
10419;DHT22;5256;48.728;9.140;2024-03-02T06:13:27;1.20;99.90
10419;DHT22;5256;48.728;9.140;2024-03-02T06:15:52;1.30;99.90
10419;DHT22;5256;48.728;9.140;2024-03-02T06:18:18;1.40;99.90
10419;DHT22;5256;48.728;9.140;2024-03-02T06:20:43;1.50;99.90
10419;DHT22;5256;48.728;9.140;2024-03-02T06:23:09;1.70;99.90
10419;DHT22;5256;48.728;9.140;2024-03-02T06:25:35;1.70;99.90
10419;DHT22;5256;48.728;9.140;2024-03-02T06:28:00;1.70;99.90
10419;DHT22;5256;48.728;9.140;2024-03-02T06:30:26;1.90;99.90
10419;DHT22;5256;48.728;9.140;2024-03-02T06:32:52;2.10;99.90
10419;DHT22;5256;48.728;9.140;2024-03-02T06:35:17;2.20;99.90
10419;DHT22;5256;48.728;9.140;2024-03-02T06:37:43;2.20;99.90
10419;DHT22;5256;48.728;9.140;2024-03-02T06:40:09;2.20;99.90
10419;DHT22;5256;48.728;9.140;2024-03-02T06:42:35;2.20;99.90
10419;DHT22;5256;48.728;9.140;2024-03-02T06:45:02;2.30;99.90
10419;DHT22;5256;48.728;9.140;2024-03-02T06:47:28;2.40;99.90
10419;DHT22;5256;48.728;9.140;2024-03-02T06:49:54;2.50;99.90
10419;DHT22;5256;48.728;9.140;2024-03-02T06:52:19;2.60;99.90
10419;DHT22;5256;48.728;9.140;2024-03-02T06:54:46;2.60;99.90
10419;DHT22;5256;48.728;9.140;2024-03-02T06:57:12;2.70;99.90
10419;DHT22;5256;48.728;9.140;2024-03-02T06:59:37;2.80;99.90
10419;DHT22;5256;48.728;9.140;2024-03-02T07:02:03;2.90;99.90
10419;DHT22;5256;48.728;9.140;2024-03-02T07:04:29;3.00;99.90
10419;DHT22;5256;48.728;9.140;2024-03-02T07:06:54;3.00;99.90
10419;DHT22;5256;48.728;9.140;2024-03-02T07:09:20;3.20;99.90
10419;DHT22;5256;48.728;9.140;2024-03-02T07:11:48;3.20;99.90
10419;DHT22;5256;48.728;9.140;2024-03-02T07:14:14;3.40;99.90
10419;DHT22;5256;48.728;9.140;2024-03-02T07:16:40;3.50;99.90
10419;DHT22;5256;48.728;9.140;2024-03-02T07:19:06;3.60;99.90
10419;DHT22;5256;48.728;9.140;2024-03-02T07:21:32;3.80;99.90
10419;DHT22;5256;48.728;9.140;2024-03-02T07:23:58;3.90;99.90
10419;DHT22;5256;48.728;9.140;2024-03-02T07:26:25;4.10;99.90
10419;DHT22;5256;48.728;9.140;2024-03-02T07:28:51;4.50;99.90
10419;DHT22;5256;48.728;9.140;2024-03-02T07:31:16;4.90;99.90
10419;DHT22;5256;48.728;9.140;2024-03-02T07:33:44;5.20;99.90
10419;DHT22;5256;48.728;9.140;2024-03-02T07:36:10;5.40;99.90
10419;DHT22;5256;48.728;9.140;2024-03-02T07:38:36;5.50;99.90
10419;DHT22;5256;48.728;9.140;2024-03-02T07:41:02;5.30;99.90
10419;DHT22;5256;48.728;9.140;2024-03-02T07:43:29;5.20;99.90
10419;DHT22;5256;48.728;9.140;2024-03-02T07:45:56;5.10;99.90
10419;DHT22;5256;48.728;9.140;2024-03-02T07:48:22;5.20;99.90
10419;DHT22;5256;48.728;9.140;2024-03-02T07:50:47;5.20;99.90
10419;DHT22;5256;48.728;9.140;2024-03-02T07:53:13;5.10;99.90
10419;DHT22;5256;48.728;9.140;2024-03-02T07:55:39;5.20;99.90
10419;DHT22;5256;48.728;9.140;2024-03-02T07:58:06;5.20;99.90
10419;DHT22;5256;48.728;9.140;2024-03-02T08:00:32;5.40;99.90
10419;DHT22;5256;48.728;9.140;2024-03-02T08:02:57;5.40;99.90
10419;DHT22;5256;48.728;9.140;2024-03-02T08:05:23;5.40;99.90
10419;DHT22;5256;48.728;9.140;2024-03-02T08:07:49;5.30;99.90
10419;DHT22;5256;48.728;9.140;2024-03-02T08:10:18;5.30;99.90
10419;DHT22;5256;48.728;9.140;2024-03-02T08:12:44;5.40;99.90
10419;DHT22;5256;48.728;9.140;2024-03-02T08:15:10;5.50;99.90
10419;DHT22;5256;48.728;9.140;2024-03-02T08:17:35;5.80;99.90
10419;DHT22;5256;48.728;9.140;2024-03-02T08:20:01;6.00;99.90
10419;DHT22;5256;48.728;9.140;2024-03-02T08:22:27;6.30;99.90
10419;DHT22;5256;48.728;9.140;2024-03-02T08:24:53;6.70;99.90
10419;DHT22;5256;48.728;9.140;2024-03-02T08:27:19;7.00;99.90
10419;DHT22;5256;48.728;9.140;2024-03-02T08:29:45;7.00;99.90
10419;DHT22;5256;48.728;9.140;2024-03-02T08:32:11;7.10;99.90
10419;DHT22;5256;48.728;9.140;2024-03-02T08:34:36;7.10;99.90
10419;DHT22;5256;48.728;9.140;2024-03-02T08:37:02;7.10;99.90
10419;DHT22;5256;48.728;9.140;2024-03-02T08:39:28;7.10;99.90
10419;DHT22;5256;48.728;9.140;2024-03-02T08:41:54;7.10;99.90
10419;DHT22;5256;48.728;9.140;2024-03-02T08:44:20;7.10;99.90
10419;DHT22;5256;48.728;9.140;2024-03-02T08:46:46;7.10;99.90
10419;DHT22;5256;48.728;9.140;2024-03-02T08:49:12;7.20;99.90
10419;DHT22;5256;48.728;9.140;2024-03-02T08:51:38;7.30;99.90
10419;DHT22;5256;48.728;9.140;2024-03-02T08:54:04;7.40;99.90
10419;DHT22;5256;48.728;9.140;2024-03-02T08:56:31;7.40;99.90
10419;DHT22;5256;48.728;9.140;2024-03-02T08:58:56;7.60;99.90
10419;DHT22;5256;48.728;9.140;2024-03-02T09:01:22;7.60;99.90
10419;DHT22;5256;48.728;9.140;2024-03-02T09:03:48;7.80;99.90
10419;DHT22;5256;48.728;9.140;2024-03-02T09:06:15;7.90;99.90
10419;DHT22;5256;48.728;9.140;2024-03-02T09:08:44;8.20;99.90
10419;DHT22;5256;48.728;9.140;2024-03-02T09:11:10;8.40;99.90
10419;DHT22;5256;48.728;9.140;2024-03-02T09:13:37;8.40;99.90
10419;DHT22;5256;48.728;9.140;2024-03-02T09:16:03;8.70;99.90
10419;DHT22;5256;48.728;9.140;2024-03-02T09:18:30;8.80;99.90
10419;DHT22;5256;48.728;9.140;2024-03-02T09:20:56;9.00;99.90
10419;DHT22;5256;48.728;9.140;2024-03-02T09:23:21;9.20;99.90
10419;DHT22;5256;48.728;9.140;2024-03-02T09:25:47;9.30;99.90
10419;DHT22;5256;48.728;9.140;2024-03-02T09:28:12;9.30;99.90
10419;DHT22;5256;48.728;9.140;2024-03-02T09:30:38;9.20;99.90
10419;DHT22;5256;48.728;9.140;2024-03-02T09:33:04;9.30;99.90
10419;DHT22;5256;48.728;9.140;2024-03-02T09:35:29;9.40;99.90
10419;DHT22;5256;48.728;9.140;2024-03-02T09:37:55;9.40;99.90
10419;DHT22;5256;48.728;9.140;2024-03-02T09:40:22;9.60;99.90
10419;DHT22;5256;48.728;9.140;2024-03-02T09:42:48;9.70;99.90
10419;DHT22;5256;48.728;9.140;2024-03-02T09:45:23;9.80;99.90
10419;DHT22;5256;48.728;9.140;2024-03-02T09:47:49;9.90;99.90
10419;DHT22;5256;48.728;9.140;2024-03-02T09:50:15;9.90;99.90
10419;DHT22;5256;48.728;9.140;2024-03-02T09:52:42;10.00;99.90
10419;DHT22;5256;48.728;9.140;2024-03-02T09:55:08;10.00;99.90
10419;DHT22;5256;48.728;9.140;2024-03-02T09:57:34;10.20;99.90
10419;DHT22;5256;48.728;9.140;2024-03-02T10:00:00;10.20;99.90
10419;DHT22;5256;48.728;9.140;2024-03-02T10:02:26;10.10;99.90
10419;DHT22;5256;48.728;9.140;2024-03-02T10:04:51;10.20;99.90
10419;DHT22;5256;48.728;9.140;2024-03-02T10:07:18;10.30;99.90
10419;DHT22;5256;48.728;9.140;2024-03-02T10:09:45;10.40;99.90
10419;DHT22;5256;48.728;9.140;2024-03-02T10:12:13;10.30;99.90
10419;DHT22;5256;48.728;9.140;2024-03-02T10:14:39;10.50;99.90
10419;DHT22;5256;48.728;9.140;2024-03-02T10:17:06;10.70;99.90
10419;DHT22;5256;48.728;9.140;2024-03-02T10:19:33;10.90;99.90
10419;DHT22;5256;48.728;9.140;2024-03-02T10:22:01;10.90;99.90
10419;DHT22;5256;48.728;9.140;2024-03-02T10:24:28;11.10;99.90
10419;DHT22;5256;48.728;9.140;2024-03-02T10:26:59;11.20;99.90
10419;DHT22;5256;48.728;9.140;2024-03-02T10:29:25;11.20;99.90
10419;DHT22;5256;48.728;9.140;2024-03-02T10:31:54;11.30;99.90
10419;DHT22;5256;48.728;9.140;2024-03-02T10:34:21;11.40;99.90
10419;DHT22;5256;48.728;9.140;2024-03-02T10:36:47;11.50;99.90
10419;DHT22;5256;48.728;9.140;2024-03-02T10:39:15;11.50;99.90
10419;DHT22;5256;48.728;9.140;2024-03-02T10:41:41;11.50;99.90
10419;DHT22;5256;48.728;9.140;2024-03-02T10:44:08;11.60;99.90
10419;DHT22;5256;48.728;9.140;2024-03-02T10:46:35;11.60;99.90
10419;DHT22;5256;48.728;9.140;2024-03-02T10:49:03;11.80;99.90
10419;DHT22;5256;48.728;9.140;2024-03-02T10:51:30;11.90;99.90
10419;DHT22;5256;48.728;9.140;2024-03-02T10:54:02;12.00;99.90
10419;DHT22;5256;48.728;9.140;2024-03-02T10:56:31;12.00;99.90
10419;DHT22;5256;48.728;9.140;2024-03-02T10:59:03;12.10;99.90
10419;DHT22;5256;48.728;9.140;2024-03-02T11:01:32;12.10;99.90
10419;DHT22;5256;48.728;9.140;2024-03-02T11:03:59;12.10;99.90
10419;DHT22;5256;48.728;9.140;2024-03-02T11:06:27;12.20;99.90
10419;DHT22;5256;48.728;9.140;2024-03-02T11:08:55;12.20;99.90
10419;DHT22;5256;48.728;9.140;2024-03-02T11:11:29;12.30;99.90
10419;DHT22;5256;48.728;9.140;2024-03-02T11:13:57;12.50;99.90
10419;DHT22;5256;48.728;9.140;2024-03-02T11:16:34;12.50;99.90
10419;DHT22;5256;48.728;9.140;2024-03-02T11:19:05;12.40;99.90
10419;DHT22;5256;48.728;9.140;2024-03-02T11:21:33;12.30;99.90
10419;DHT22;5256;48.728;9.140;2024-03-02T11:23:59;12.30;99.90
10419;DHT22;5256;48.728;9.140;2024-03-02T11:26:25;12.40;99.90
10419;DHT22;5256;48.728;9.140;2024-03-02T11:28:51;12.40;99.90
10419;DHT22;5256;48.728;9.140;2024-03-02T11:31:16;12.40;99.90
10419;DHT22;5256;48.728;9.140;2024-03-02T11:33:42;12.50;99.90
10419;DHT22;5256;48.728;9.140;2024-03-02T11:36:08;12.60;99.90
10419;DHT22;5256;48.728;9.140;2024-03-02T11:38:35;12.60;99.90
10419;DHT22;5256;48.728;9.140;2024-03-02T11:41:02;12.80;99.90
10419;DHT22;5256;48.728;9.140;2024-03-02T11:43:29;12.80;99.90
10419;DHT22;5256;48.728;9.140;2024-03-02T11:45:59;12.80;99.90
10419;DHT22;5256;48.728;9.140;2024-03-02T11:48:25;12.90;99.90
10419;DHT22;5256;48.728;9.140;2024-03-02T11:50:51;13.00;99.90
10419;DHT22;5256;48.728;9.140;2024-03-02T11:53:17;13.00;99.90
10419;DHT22;5256;48.728;9.140;2024-03-02T11:55:44;12.90;99.90
10419;DHT22;5256;48.728;9.140;2024-03-02T11:58:12;13.00;99.90
10419;DHT22;5256;48.728;9.140;2024-03-02T12:00:38;13.00;99.90
10419;DHT22;5256;48.728;9.140;2024-03-02T12:03:09;12.90;99.90
10419;DHT22;5256;48.728;9.140;2024-03-02T12:05:35;12.90;99.90
10419;DHT22;5256;48.728;9.140;2024-03-02T12:08:03;13.00;99.90
10419;DHT22;5256;48.728;9.140;2024-03-02T12:10:30;12.90;99.90
10419;DHT22;5256;48.728;9.140;2024-03-02T12:13:06;13.10;99.90
10419;DHT22;5256;48.728;9.140;2024-03-02T12:15:34;13.20;99.90
10419;DHT22;5256;48.728;9.140;2024-03-02T12:18:02;13.20;99.90
10419;DHT22;5256;48.728;9.140;2024-03-02T12:20:29;13.30;99.90
10419;DHT22;5256;48.728;9.140;2024-03-02T12:22:59;13.40;99.90
10419;DHT22;5256;48.728;9.140;2024-03-02T12:25:26;13.30;99.90
10419;DHT22;5256;48.728;9.140;2024-03-02T12:27:56;13.30;99.90
10419;DHT22;5256;48.728;9.140;2024-03-02T12:30:22;13.30;99.90
10419;DHT22;5256;48.728;9.140;2024-03-02T12:32:48;13.40;99.90
10419;DHT22;5256;48.728;9.140;2024-03-02T12:35:14;13.40;99.90
10419;DHT22;5256;48.728;9.140;2024-03-02T12:37:51;13.50;99.90
10419;DHT22;5256;48.728;9.140;2024-03-02T12:40:18;13.50;99.90
10419;DHT22;5256;48.728;9.140;2024-03-02T12:42:45;13.60;99.90
10419;DHT22;5256;48.728;9.140;2024-03-02T12:45:12;13.70;99.90
10419;DHT22;5256;48.728;9.140;2024-03-02T12:47:38;13.70;99.90
10419;DHT22;5256;48.728;9.140;2024-03-02T12:50:05;13.80;99.90
10419;DHT22;5256;48.728;9.140;2024-03-02T12:52:31;13.60;99.90
10419;DHT22;5256;48.728;9.140;2024-03-02T12:55:00;13.60;99.90
10419;DHT22;5256;48.728;9.140;2024-03-02T12:57:26;13.60;99.90
10419;DHT22;5256;48.728;9.140;2024-03-02T13:00:03;13.60;99.90
10419;DHT22;5256;48.728;9.140;2024-03-02T13:02:34;13.70;99.90
10419;DHT22;5256;48.728;9.140;2024-03-02T13:05:00;13.70;99.90
10419;DHT22;5256;48.728;9.140;2024-03-02T13:07:26;13.80;99.90
10419;DHT22;5256;48.728;9.140;2024-03-02T13:09:52;13.70;99.90
10419;DHT22;5256;48.728;9.140;2024-03-02T13:12:19;13.60;99.90
10419;DHT22;5256;48.728;9.140;2024-03-02T13:14:48;13.50;99.90
10419;DHT22;5256;48.728;9.140;2024-03-02T13:17:15;13.60;99.90
10419;DHT22;5256;48.728;9.140;2024-03-02T13:19:59;13.70;99.90
10419;DHT22;5256;48.728;9.140;2024-03-02T13:22:26;13.80;99.90
10419;DHT22;5256;48.728;9.140;2024-03-02T13:24:53;13.80;99.90
10419;DHT22;5256;48.728;9.140;2024-03-02T13:27:22;14.00;99.90
10419;DHT22;5256;48.728;9.140;2024-03-02T13:29:48;14.00;99.90
10419;DHT22;5256;48.728;9.140;2024-03-02T13:32:14;14.00;99.90
10419;DHT22;5256;48.728;9.140;2024-03-02T13:34:40;14.10;99.90
10419;DHT22;5256;48.728;9.140;2024-03-02T13:37:06;14.20;99.90
10419;DHT22;5256;48.728;9.140;2024-03-02T13:39:32;14.10;99.90
10419;DHT22;5256;48.728;9.140;2024-03-02T13:41:58;14.10;99.90
10419;DHT22;5256;48.728;9.140;2024-03-02T13:44:30;14.10;99.90
10419;DHT22;5256;48.728;9.140;2024-03-02T13:46:56;14.10;99.90
10419;DHT22;5256;48.728;9.140;2024-03-02T13:49:21;14.00;99.90
10419;DHT22;5256;48.728;9.140;2024-03-02T13:51:48;13.80;99.90
10419;DHT22;5256;48.728;9.140;2024-03-02T13:54:14;13.90;99.90
10419;DHT22;5256;48.728;9.140;2024-03-02T13:56:39;13.90;99.90
10419;DHT22;5256;48.728;9.140;2024-03-02T13:59:06;13.80;99.90
10419;DHT22;5256;48.728;9.140;2024-03-02T14:01:32;13.80;99.90
10419;DHT22;5256;48.728;9.140;2024-03-02T14:03:58;13.80;99.90
10419;DHT22;5256;48.728;9.140;2024-03-02T14:06:24;13.90;99.90
10419;DHT22;5256;48.728;9.140;2024-03-02T14:08:52;13.90;99.90
10419;DHT22;5256;48.728;9.140;2024-03-02T14:11:18;14.00;99.90
10419;DHT22;5256;48.728;9.140;2024-03-02T14:13:43;14.00;99.90
10419;DHT22;5256;48.728;9.140;2024-03-02T14:16:12;14.10;99.90
10419;DHT22;5256;48.728;9.140;2024-03-02T14:18:37;14.10;99.90
10419;DHT22;5256;48.728;9.140;2024-03-02T14:21:03;14.10;99.90
10419;DHT22;5256;48.728;9.140;2024-03-02T14:23:29;14.10;99.90
10419;DHT22;5256;48.728;9.140;2024-03-02T14:25:55;14.00;99.90
10419;DHT22;5256;48.728;9.140;2024-03-02T14:28:21;14.10;99.90
10419;DHT22;5256;48.728;9.140;2024-03-02T14:30:46;14.00;99.90
10419;DHT22;5256;48.728;9.140;2024-03-02T14:33:12;14.10;99.90
10419;DHT22;5256;48.728;9.140;2024-03-02T14:35:39;14.20;99.90
10419;DHT22;5256;48.728;9.140;2024-03-02T14:38:04;14.20;99.90
10419;DHT22;5256;48.728;9.140;2024-03-02T14:40:30;14.20;99.90
10419;DHT22;5256;48.728;9.140;2024-03-02T14:42:56;14.20;99.90
10419;DHT22;5256;48.728;9.140;2024-03-02T14:45:21;14.10;99.90
10419;DHT22;5256;48.728;9.140;2024-03-02T14:47:47;14.10;99.90
10419;DHT22;5256;48.728;9.140;2024-03-02T14:50:13;14.30;99.90
10419;DHT22;5256;48.728;9.140;2024-03-02T14:52:40;14.40;99.90
10419;DHT22;5256;48.728;9.140;2024-03-02T14:55:06;14.30;99.90
10419;DHT22;5256;48.728;9.140;2024-03-02T14:57:33;14.30;99.30
10419;DHT22;5256;48.728;9.140;2024-03-02T14:59:58;14.30;99.70
10419;DHT22;5256;48.728;9.140;2024-03-02T15:02:24;14.30;99.90
10419;DHT22;5256;48.728;9.140;2024-03-02T15:04:50;14.30;99.80
10419;DHT22;5256;48.728;9.140;2024-03-02T15:07:16;14.40;99.90
10419;DHT22;5256;48.728;9.140;2024-03-02T15:09:41;14.50;99.70
10419;DHT22;5256;48.728;9.140;2024-03-02T15:12:07;14.50;99.50
10419;DHT22;5256;48.728;9.140;2024-03-02T15:14:38;14.50;99.10
10419;DHT22;5256;48.728;9.140;2024-03-02T15:17:04;14.40;99.00
10419;DHT22;5256;48.728;9.140;2024-03-02T15:19:29;14.40;98.90
10419;DHT22;5256;48.728;9.140;2024-03-02T15:21:55;14.30;98.70
10419;DHT22;5256;48.728;9.140;2024-03-02T15:24:21;14.00;98.20
10419;DHT22;5256;48.728;9.140;2024-03-02T15:26:46;13.90;98.30
10419;DHT22;5256;48.728;9.140;2024-03-02T15:29:12;13.70;98.30
10419;DHT22;5256;48.728;9.140;2024-03-02T15:31:37;13.60;98.60
10419;DHT22;5256;48.728;9.140;2024-03-02T15:34:03;13.60;98.30
10419;DHT22;5256;48.728;9.140;2024-03-02T15:36:28;13.40;98.40
10419;DHT22;5256;48.728;9.140;2024-03-02T15:38:54;13.30;98.30
10419;DHT22;5256;48.728;9.140;2024-03-02T15:41:20;13.10;98.30
10419;DHT22;5256;48.728;9.140;2024-03-02T15:43:45;13.00;98.70
10419;DHT22;5256;48.728;9.140;2024-03-02T15:46:12;12.90;98.70
10419;DHT22;5256;48.728;9.140;2024-03-02T15:48:37;12.90;98.80
10419;DHT22;5256;48.728;9.140;2024-03-02T15:51:03;12.80;98.60
10419;DHT22;5256;48.728;9.140;2024-03-02T15:53:30;12.70;99.20